createdAt,value
2016-03-02T00:00:35.307Z,987.01
2016-03-02T00:01:35.309Z,987.02
2016-03-02T00:02:35.296Z,987
2016-03-02T00:03:35.299Z,987
2016-03-02T00:04:35.286Z,986.95
2016-03-02T00:05:35.289Z,986.93
2016-03-02T00:06:35.276Z,986.95
2016-03-02T00:07:35.279Z,986.95
2016-03-02T00:08:35.281Z,986.94
2016-03-02T00:09:35.284Z,986.91
2016-03-02T00:10:35.270Z,986.87
2016-03-02T00:11:35.273Z,986.86
2016-03-02T00:12:35.260Z,986.91
2016-03-02T00:13:35.248Z,986.93
2016-03-02T00:14:35.250Z,986.88
2016-03-02T00:15:47.991Z,986.86
2016-03-02T00:16:35.241Z,986.87
2016-03-02T00:17:35.243Z,986.86
2016-03-02T00:18:35.246Z,986.89
2016-03-02T00:19:35.233Z,986.8
2016-03-02T00:20:35.236Z,986.83
2016-03-02T00:21:35.222Z,986.78
2016-03-02T00:22:35.240Z,986.72
2016-03-02T00:23:35.213Z,986.71
2016-03-02T00:24:47.952Z,986.7
2016-03-02T00:25:35.218Z,986.62
2016-03-02T00:26:35.205Z,986.63
2016-03-02T00:27:35.207Z,986.62
2016-03-02T00:28:35.194Z,986.62
2016-03-02T00:29:35.196Z,986.56
2016-03-02T00:30:35.216Z,986.54
2016-03-02T00:31:35.187Z,986.54
2016-03-02T00:32:47.926Z,986.51
2016-03-02T00:33:35.192Z,986.5
2016-03-02T00:34:35.179Z,986.52
2016-03-02T00:35:35.182Z,986.47
2016-03-02T00:36:35.170Z,986.51
2016-03-02T00:37:35.173Z,986.39
2016-03-02T00:38:35.175Z,986.4
2016-03-02T00:39:35.161Z,986.32
2016-03-02T00:40:35.165Z,986.34
2016-03-02T00:41:35.151Z,986.3
2016-03-02T00:42:35.154Z,986.32
2016-03-02T00:43:35.156Z,986.31
2016-03-02T00:44:35.144Z,986.34
2016-03-02T00:45:35.146Z,986.3
2016-03-02T00:46:35.133Z,986.29
2016-03-02T00:47:35.136Z,986.24
2016-03-02T00:48:35.155Z,986.24
2016-03-02T00:49:35.125Z,986.2
2016-03-02T00:50:35.128Z,986.23
2016-03-02T00:51:35.116Z,986.18
2016-03-02T00:52:35.118Z,986.18
2016-03-02T00:53:35.121Z,986.18
2016-03-02T00:54:35.123Z,986.15
2016-03-02T00:55:35.111Z,986.13
2016-03-02T00:56:35.113Z,986.14
2016-03-02T00:57:35.101Z,986.12
2016-03-02T00:58:35.104Z,986.12
2016-03-02T00:59:35.106Z,986.14
2016-03-02T01:00:35.093Z,986.09
2016-03-02T01:01:35.096Z,986.12
2016-03-02T01:02:35.099Z,986.08
2016-03-02T01:03:47.822Z,986.04
2016-03-02T01:04:35.087Z,986.07
2016-03-02T01:05:35.091Z,986.07
2016-03-02T01:06:35.078Z,985.98
2016-03-02T01:07:35.081Z,986.01
2016-03-02T01:08:35.067Z,985.94
2016-03-02T01:09:35.070Z,985.95
2016-03-02T01:10:35.057Z,985.97
2016-03-02T01:11:35.059Z,985.89
2016-03-02T01:12:35.063Z,985.95
2016-03-02T01:13:35.050Z,985.9
2016-03-02T01:14:35.052Z,985.91
2016-03-02T01:15:35.039Z,985.85
2016-03-02T01:16:35.042Z,985.81
2016-03-02T01:17:35.030Z,985.82
2016-03-02T01:18:47.769Z,985.8
2016-03-02T01:19:35.035Z,985.86
2016-03-02T01:20:35.194Z,985.85
2016-03-02T01:21:35.024Z,985.81
2016-03-02T01:22:35.027Z,985.77
2016-03-02T01:23:35.014Z,985.74
2016-03-02T01:24:35.032Z,985.7
2016-03-02T01:25:35.019Z,985.71
2016-03-02T01:26:35.007Z,985.8
2016-03-02T01:27:35.009Z,985.7
2016-03-02T01:28:34.996Z,985.66
2016-03-02T01:29:34.999Z,985.71
2016-03-02T01:30:35.002Z,985.7
2016-03-02T01:31:34.988Z,985.68
2016-03-02T01:32:34.991Z,985.72
2016-03-02T01:33:34.979Z,985.63
2016-03-02T01:34:34.981Z,985.56
2016-03-02T01:35:34.984Z,985.6
2016-03-02T01:36:47.740Z,985.53
2016-03-02T01:37:34.974Z,985.57
2016-03-02T01:38:34.976Z,985.61
2016-03-02T01:39:34.964Z,985.54
2016-03-02T01:40:34.967Z,985.56
2016-03-02T01:41:34.953Z,985.41
2016-03-02T01:42:34.956Z,985.34
2016-03-02T01:43:34.959Z,985.41
2016-03-02T01:44:34.945Z,985.38
2016-03-02T01:45:34.948Z,985.3
2016-03-02T01:46:34.935Z,985.31
2016-03-02T01:47:34.939Z,985.24
2016-03-02T01:48:34.941Z,985.2
2016-03-02T01:49:34.928Z,985.24
2016-03-02T01:50:34.931Z,985.26
2016-03-02T01:51:34.933Z,985.26
2016-03-02T01:52:34.935Z,985.31
2016-03-02T01:53:34.923Z,985.3
2016-03-02T01:54:34.925Z,985.27
2016-03-02T01:55:34.913Z,985.35
2016-03-02T01:56:34.915Z,985.27
2016-03-02T01:57:34.902Z,985.34
2016-03-02T01:58:34.905Z,985.35
2016-03-02T01:59:34.907Z,985.2
2016-03-02T02:00:34.896Z,985.26
2016-03-02T02:01:34.898Z,985.22
2016-03-02T02:02:34.900Z,985.3
2016-03-02T02:03:34.887Z,985.31
2016-03-02T02:04:34.890Z,985.24
2016-03-02T02:05:34.893Z,985.19
2016-03-02T02:06:34.905Z,985.29
2016-03-02T02:07:34.876Z,985.23
2016-03-02T02:08:34.879Z,985.22
2016-03-02T02:09:34.881Z,985.09
2016-03-02T02:10:34.869Z,985.13
2016-03-02T02:11:34.872Z,985.12
2016-03-02T02:12:34.858Z,985.05
2016-03-02T02:13:34.877Z,985
2016-03-02T02:14:34.864Z,984.98
2016-03-02T02:15:34.867Z,984.95
2016-03-02T02:16:34.854Z,984.97
2016-03-02T02:17:34.857Z,984.87
2016-03-02T02:18:34.844Z,984.87
2016-03-02T02:19:34.846Z,984.81
2016-03-02T02:20:34.849Z,984.86
2016-03-02T02:21:34.868Z,984.79
2016-03-02T02:22:34.839Z,984.79
2016-03-02T02:23:34.841Z,984.78
2016-03-02T02:24:34.829Z,984.77
2016-03-02T02:25:34.847Z,984.78
2016-03-02T02:26:34.818Z,984.73
2016-03-02T02:27:34.821Z,984.78
2016-03-02T02:28:47.560Z,984.75
2016-03-02T02:29:34.826Z,984.71
2016-03-02T02:30:34.813Z,984.67
2016-03-02T02:31:34.815Z,984.69
2016-03-02T02:32:34.819Z,984.72
2016-03-02T02:33:34.806Z,984.69
2016-03-02T02:34:34.809Z,984.61
2016-03-02T02:35:34.812Z,984.62
2016-03-02T02:36:34.798Z,984.51
2016-03-02T02:37:34.785Z,984.57
2016-03-02T02:38:34.789Z,984.57
2016-03-02T02:39:47.528Z,984.55
2016-03-02T02:40:47.530Z,984.58
2016-03-02T02:41:34.780Z,984.46
2016-03-02T02:42:34.783Z,984.45
2016-03-02T02:43:34.770Z,984.46
2016-03-02T02:44:34.772Z,984.53
2016-03-02T02:45:34.776Z,984.52
2016-03-02T02:46:34.778Z,984.5
2016-03-02T02:47:34.765Z,984.48
2016-03-02T02:48:34.783Z,984.36
2016-03-02T02:49:34.755Z,984.47
2016-03-02T02:50:34.758Z,984.45
2016-03-02T02:51:34.744Z,984.44
2016-03-02T02:52:34.747Z,984.32
2016-03-02T02:53:34.750Z,984.25
2016-03-02T02:54:34.737Z,984.31
2016-03-02T02:55:34.741Z,984.46
2016-03-02T02:56:34.727Z,984.32
2016-03-02T02:57:34.730Z,984.35
2016-03-02T02:58:34.732Z,984.35
2016-03-02T02:59:34.720Z,984.28
2016-03-02T03:00:47.459Z,984.26
2016-03-02T03:01:34.709Z,984.27
2016-03-02T03:02:34.712Z,984.28
2016-03-02T03:03:34.715Z,984.19
2016-03-02T03:04:34.717Z,984.21
2016-03-02T03:05:47.442Z,984.18
2016-03-02T03:06:34.707Z,984.17
2016-03-02T03:07:34.695Z,984.14
2016-03-02T03:08:34.697Z,984.16
2016-03-02T03:09:34.700Z,984.24
2016-03-02T03:10:34.703Z,984.17
2016-03-02T03:11:34.689Z,984.3
2016-03-02T03:12:34.675Z,984.15
2016-03-02T03:13:34.679Z,984.1
2016-03-02T03:14:34.697Z,984.13
2016-03-02T03:15:34.716Z,984.19
2016-03-02T03:16:34.672Z,984.07
2016-03-02T03:17:34.674Z,984
2016-03-02T03:18:34.677Z,983.99
2016-03-02T03:19:34.663Z,983.87
2016-03-02T03:20:34.652Z,984
2016-03-02T03:21:34.654Z,983.9
2016-03-02T03:22:34.656Z,983.98
2016-03-02T03:23:34.643Z,983.96
2016-03-02T03:24:34.646Z,983.9
2016-03-02T03:25:34.649Z,983.86
2016-03-02T03:26:34.636Z,983.83
2016-03-02T03:27:34.639Z,983.89
2016-03-02T03:28:34.641Z,983.77
2016-03-02T03:29:34.628Z,983.82
2016-03-02T03:30:47.368Z,983.79
2016-03-02T03:31:34.634Z,983.78
2016-03-02T03:32:34.621Z,983.8
2016-03-02T03:33:34.623Z,983.74
2016-03-02T03:34:34.610Z,983.75
2016-03-02T03:35:34.613Z,983.68
2016-03-02T03:36:34.615Z,983.7
2016-03-02T03:37:34.604Z,983.63
2016-03-02T03:38:34.606Z,983.64
2016-03-02T03:39:34.592Z,983.63
2016-03-02T03:40:34.595Z,983.66
2016-03-02T03:41:34.598Z,983.54
2016-03-02T03:42:34.585Z,983.47
2016-03-02T03:43:34.588Z,983.53
2016-03-02T03:44:34.591Z,983.47
2016-03-02T03:45:34.594Z,983.49
2016-03-02T03:46:34.580Z,983.46
2016-03-02T03:47:34.583Z,983.41
2016-03-02T03:48:34.570Z,983.36
2016-03-02T03:49:34.572Z,983.36
2016-03-02T03:50:34.575Z,983.23
2016-03-02T03:51:34.562Z,983.33
2016-03-02T03:52:34.565Z,983.31
2016-03-02T03:53:34.552Z,983.39
2016-03-02T03:54:47.292Z,983.39
2016-03-02T03:55:34.558Z,983.29
2016-03-02T03:56:34.544Z,983.33
2016-03-02T03:57:34.547Z,983.36
2016-03-02T03:58:34.535Z,983.38
2016-03-02T03:59:34.537Z,983.18
2016-03-02T04:00:34.540Z,983.35
2016-03-02T04:01:34.527Z,983.32
2016-03-02T04:02:34.530Z,983.33
2016-03-02T04:03:34.517Z,983.45
2016-03-02T04:04:34.519Z,983.36
2016-03-02T04:05:34.523Z,983.34
2016-03-02T04:06:34.525Z,983.36
2016-03-02T04:07:34.512Z,983.38
2016-03-02T04:08:34.498Z,983.35
2016-03-02T04:09:34.501Z,983.31
2016-03-02T04:10:34.504Z,983.33
2016-03-02T04:11:34.492Z,983.37
2016-03-02T04:12:34.495Z,983.34
2016-03-02T04:13:34.497Z,983.21
2016-03-02T04:14:34.483Z,983.44
2016-03-02T04:15:34.486Z,983.48
2016-03-02T04:16:34.489Z,983.34
2016-03-02T04:17:34.475Z,983.34
2016-03-02T04:18:34.479Z,983.34
2016-03-02T04:19:34.481Z,983.35
2016-03-02T04:20:34.468Z,983.31
2016-03-02T04:21:34.471Z,983.26
2016-03-02T04:22:34.474Z,983.29
2016-03-02T04:23:34.461Z,983.28
2016-03-02T04:24:34.463Z,983.3
2016-03-02T04:25:34.451Z,983.26
2016-03-02T04:26:34.454Z,983.33
2016-03-02T04:27:34.456Z,983.21
2016-03-02T04:28:34.444Z,983.24
2016-03-02T04:29:34.446Z,983.28
2016-03-02T04:30:34.449Z,983.24
2016-03-02T04:31:34.435Z,983.23
2016-03-02T04:32:34.438Z,983.29
2016-03-02T04:33:47.178Z,983.34
2016-03-02T04:34:34.443Z,983.26
2016-03-02T04:35:34.431Z,983.35
2016-03-02T04:36:34.434Z,983.27
2016-03-02T04:37:47.157Z,983.25
2016-03-02T04:38:34.423Z,983.29
2016-03-02T04:39:34.426Z,983.24
2016-03-02T04:40:34.413Z,983.23
2016-03-02T04:41:34.415Z,983.23
2016-03-02T04:42:34.418Z,983.19
2016-03-02T04:43:34.406Z,983.1
2016-03-02T04:44:34.409Z,983.08
2016-03-02T04:45:34.411Z,983.05
2016-03-02T04:46:34.398Z,983.02
2016-03-02T04:47:34.400Z,983.01
2016-03-02T04:48:34.419Z,983.02
2016-03-02T04:49:34.391Z,982.98
2016-03-02T04:50:34.393Z,983.01
2016-03-02T04:51:34.396Z,983.04
2016-03-02T04:52:34.382Z,982.96
2016-03-02T04:53:34.386Z,982.97
2016-03-02T04:54:34.388Z,982.91
2016-03-02T04:55:34.390Z,982.88
2016-03-02T04:56:47.113Z,982.92
2016-03-02T04:57:34.380Z,983.01
2016-03-02T04:58:34.368Z,982.94
2016-03-02T04:59:34.371Z,982.92
2016-03-02T05:00:34.373Z,982.82
2016-03-02T05:01:34.376Z,982.91
2016-03-02T05:02:34.378Z,982.94
2016-03-02T05:03:34.366Z,982.86
2016-03-02T05:04:34.368Z,982.83
2016-03-02T05:05:34.371Z,982.93
2016-03-02T05:06:34.357Z,982.87
2016-03-02T05:07:34.360Z,982.9
2016-03-02T05:08:34.348Z,982.87
2016-03-02T05:09:34.350Z,982.83
2016-03-02T05:10:34.354Z,982.81
2016-03-02T05:11:34.340Z,982.85
2016-03-02T05:12:34.343Z,982.91
2016-03-02T05:13:34.362Z,982.81
2016-03-02T05:14:34.348Z,982.8
2016-03-02T05:15:34.351Z,982.79
2016-03-02T05:16:34.338Z,982.81
2016-03-02T05:17:34.341Z,982.77
2016-03-02T05:18:47.061Z,982.83
2016-03-02T05:19:34.330Z,982.81
2016-03-02T05:20:34.333Z,982.73
2016-03-02T05:21:34.320Z,982.81
2016-03-02T05:22:34.322Z,982.79
2016-03-02T05:23:34.325Z,982.74
2016-03-02T05:24:34.313Z,982.72
2016-03-02T05:25:34.316Z,982.65
2016-03-02T05:26:34.349Z,982.64
2016-03-02T05:27:34.321Z,982.54
2016-03-02T05:28:34.308Z,982.64
2016-03-02T05:29:34.310Z,982.6
2016-03-02T05:30:34.297Z,982.62
2016-03-02T05:31:34.300Z,982.59
2016-03-02T05:32:47.037Z,982.57
2016-03-02T05:33:34.290Z,982.59
2016-03-02T05:34:34.293Z,982.56
2016-03-02T05:35:34.296Z,982.53
2016-03-02T05:36:34.298Z,982.53
2016-03-02T05:37:34.284Z,982.49
2016-03-02T05:38:34.288Z,982.44
2016-03-02T05:39:34.275Z,982.37
2016-03-02T05:40:34.293Z,982.35
2016-03-02T05:41:47.015Z,982.36
2016-03-02T05:42:34.267Z,982.26
2016-03-02T05:43:34.270Z,982.28
2016-03-02T05:44:34.273Z,982.26
2016-03-02T05:45:34.259Z,982.29
2016-03-02T05:46:34.262Z,982.2
2016-03-02T05:47:34.264Z,982.2
2016-03-02T05:48:34.252Z,982.22
2016-03-02T05:49:34.255Z,982.27
2016-03-02T05:50:34.257Z,982.27
2016-03-02T05:51:34.245Z,982.26
2016-03-02T05:52:34.247Z,982.28
2016-03-02T05:53:34.250Z,982.25
2016-03-02T05:54:34.253Z,982.21
2016-03-02T05:55:34.255Z,982.17
2016-03-02T05:56:34.227Z,982.18
2016-03-02T05:57:34.229Z,982.17
2016-03-02T05:58:34.232Z,982.19
2016-03-02T05:59:34.235Z,982.23
2016-03-02T06:00:34.237Z,982.23
2016-03-02T06:01:34.225Z,982.23
2016-03-02T06:02:46.962Z,982.16
2016-03-02T06:03:34.214Z,982.1
2016-03-02T06:04:34.217Z,982.17
2016-03-02T06:05:34.220Z,982.18
2016-03-02T06:06:34.223Z,982.12
2016-03-02T06:07:34.209Z,982.17
2016-03-02T06:08:34.212Z,982.14
2016-03-02T06:09:34.215Z,982.14
2016-03-02T06:10:34.201Z,982.11
2016-03-02T06:11:34.205Z,982.09
2016-03-02T06:12:34.192Z,982.11
2016-03-02T06:13:46.929Z,982.06
2016-03-02T06:14:34.197Z,982.03
2016-03-02T06:15:34.200Z,981.99
2016-03-02T06:16:34.187Z,982.01
2016-03-02T06:17:34.189Z,981.99
2016-03-02T06:18:34.192Z,981.97
2016-03-02T06:19:34.179Z,981.91
2016-03-02T06:20:34.181Z,981.89
2016-03-02T06:21:34.184Z,981.94
2016-03-02T06:22:34.187Z,981.82
2016-03-02T06:23:34.174Z,981.83
2016-03-02T06:24:34.177Z,981.77
2016-03-02T06:25:34.180Z,981.78
2016-03-02T06:26:34.166Z,981.8
2016-03-02T06:27:34.169Z,981.67
2016-03-02T06:28:34.171Z,981.66
2016-03-02T06:29:34.160Z,981.67
2016-03-02T06:30:34.162Z,981.61
2016-03-02T06:31:34.165Z,981.55
2016-03-02T06:32:34.168Z,981.58
2016-03-02T06:33:34.154Z,981.53
2016-03-02T06:34:34.157Z,981.43
2016-03-02T06:35:34.160Z,981.46
2016-03-02T06:36:46.896Z,981.49
2016-03-02T06:37:34.149Z,981.45
2016-03-02T06:38:34.152Z,981.38
2016-03-02T06:39:34.155Z,981.39
2016-03-02T06:40:34.142Z,981.33
2016-03-02T06:41:34.145Z,981.36
2016-03-02T06:42:34.147Z,981.39
2016-03-02T06:43:34.151Z,981.34
2016-03-02T06:44:34.153Z,981.29
2016-03-02T06:45:34.139Z,981.29
2016-03-02T06:46:34.142Z,981.24
2016-03-02T06:47:34.129Z,981.23
2016-03-02T06:48:34.132Z,981.31
2016-03-02T06:49:34.135Z,981.2
2016-03-02T06:50:34.137Z,981.22
2016-03-02T06:51:34.124Z,981.26
2016-03-02T06:52:34.127Z,981.22
2016-03-02T06:53:34.130Z,981.09
2016-03-02T06:54:46.867Z,981.21
2016-03-02T06:55:34.120Z,981.18
2016-03-02T06:56:34.122Z,981.15
2016-03-02T06:57:34.125Z,981.08
2016-03-02T06:58:34.112Z,981.04
2016-03-02T06:59:34.116Z,981.09
2016-03-02T07:00:34.118Z,980.94
2016-03-02T07:01:34.121Z,981.09
2016-03-02T07:02:34.107Z,980.99
2016-03-02T07:03:34.111Z,981.04
2016-03-02T07:04:34.113Z,980.97
2016-03-02T07:05:34.099Z,980.97
2016-03-02T07:06:34.102Z,980.96
2016-03-02T07:07:34.105Z,980.99
2016-03-02T07:08:34.108Z,980.95
2016-03-02T07:09:34.111Z,980.91
2016-03-02T07:10:34.113Z,980.96
2016-03-02T07:11:34.101Z,980.91
2016-03-02T07:12:34.103Z,980.9
2016-03-02T07:13:40.372Z,980.75
2016-03-02T07:14:34.093Z,980.79
2016-03-02T07:15:34.095Z,980.73
2016-03-02T07:16:34.099Z,980.75
2016-03-02T07:17:34.101Z,980.69
2016-03-02T07:18:34.104Z,980.71
2016-03-02T07:19:34.090Z,980.65
2016-03-02T07:20:34.093Z,980.68
2016-03-02T07:21:34.096Z,980.59
2016-03-02T07:22:34.098Z,980.61
2016-03-02T07:23:34.086Z,980.54
2016-03-02T07:24:34.089Z,980.58
2016-03-02T07:25:46.826Z,980.55
2016-03-02T07:26:34.094Z,980.54
2016-03-02T07:27:34.098Z,980.59
2016-03-02T07:28:34.084Z,980.55
2016-03-02T07:29:34.087Z,980.55
2016-03-02T07:30:34.090Z,980.56
2016-03-02T07:31:34.092Z,980.62
2016-03-02T07:32:34.080Z,980.57
2016-03-02T07:33:34.082Z,980.58
2016-03-02T07:34:34.086Z,980.56
2016-03-02T07:35:34.089Z,980.56
2016-03-02T07:36:34.075Z,980.58
2016-03-02T07:37:34.078Z,980.53
2016-03-02T07:38:46.814Z,980.59
2016-03-02T07:39:46.817Z,980.52
2016-03-02T07:40:34.085Z,980.57
2016-03-02T07:41:34.088Z,980.56
2016-03-02T07:42:34.075Z,980.47
2016-03-02T07:43:34.077Z,980.43
2016-03-02T07:44:34.081Z,980.38
2016-03-02T07:45:34.083Z,980.33
2016-03-02T07:46:34.086Z,980.32
2016-03-02T07:47:34.073Z,980.21
2016-03-02T07:48:34.076Z,980.19
2016-03-02T07:49:34.094Z,980.22
2016-03-02T07:50:34.082Z,980.22
2016-03-02T07:51:46.818Z,980.26
2016-03-02T07:52:34.086Z,980.27
2016-03-02T07:53:34.073Z,980.21
2016-03-02T07:54:34.076Z,980.19
2016-03-02T07:55:34.078Z,980.21
2016-03-02T07:56:34.081Z,980.23
2016-03-02T07:57:34.084Z,980.15
2016-03-02T07:58:34.071Z,980.18
2016-03-02T07:59:34.073Z,980.17
2016-03-02T08:00:34.076Z,980.12
2016-03-02T08:01:34.079Z,980.21
2016-03-02T08:02:34.081Z,980.2
2016-03-02T08:03:34.084Z,980.12
2016-03-02T08:04:34.072Z,980.09
2016-03-02T08:05:34.075Z,980.12
2016-03-02T08:06:34.078Z,980.04
2016-03-02T08:07:34.080Z,980.03
2016-03-02T08:08:34.083Z,979.97
2016-03-02T08:09:34.086Z,979.92
2016-03-02T08:10:34.072Z,979.94
2016-03-02T08:11:34.075Z,979.78
2016-03-02T08:12:46.813Z,979.8
2016-03-02T08:13:34.081Z,979.77
2016-03-02T08:14:34.083Z,979.72
2016-03-02T08:15:34.070Z,979.73
2016-03-02T08:16:34.073Z,979.67
2016-03-02T08:17:34.076Z,979.6
2016-03-02T08:18:34.079Z,979.65
2016-03-02T08:19:34.082Z,979.76
2016-03-02T08:20:34.085Z,979.66
2016-03-02T08:21:34.071Z,979.68
2016-03-02T08:22:34.090Z,979.55
2016-03-02T08:23:34.076Z,979.66
2016-03-02T08:24:34.079Z,979.82
2016-03-02T08:25:34.081Z,979.7
2016-03-02T08:26:34.068Z,979.72
2016-03-02T08:27:34.087Z,979.7
2016-03-02T08:28:40.340Z,979.67
2016-03-02T08:29:34.077Z,979.71
2016-03-02T08:30:34.079Z,979.67
2016-03-02T08:31:34.067Z,979.62
2016-03-02T08:32:34.070Z,979.56
2016-03-02T08:33:34.072Z,979.61
2016-03-02T08:34:34.075Z,979.56
2016-03-02T08:35:34.077Z,979.61
2016-03-02T08:36:34.064Z,979.58
2016-03-02T08:37:34.057Z,979.58
2016-03-02T08:38:34.046Z,979.58
2016-03-02T08:39:34.033Z,979.52
2016-03-02T08:40:34.020Z,979.53
2016-03-02T08:41:46.727Z,979.52
2016-03-02T08:42:33.969Z,979.45
2016-03-02T08:43:33.981Z,979.48
2016-03-02T08:44:33.979Z,979.5
2016-03-02T08:45:33.976Z,979.41
2016-03-02T08:46:33.957Z,979.41
2016-03-02T08:47:33.957Z,979.42
2016-03-02T08:48:33.958Z,979.41
2016-03-02T08:49:33.958Z,979.4
2016-03-02T08:50:33.960Z,979.45
2016-03-02T08:51:33.960Z,979.4
2016-03-02T08:52:33.945Z,979.38
2016-03-02T08:53:33.947Z,979.35
2016-03-02T08:54:33.949Z,979.36
2016-03-02T08:55:33.951Z,979.28
2016-03-02T08:56:33.938Z,979.3
2016-03-02T08:57:33.940Z,979.31
2016-03-02T08:58:46.678Z,979.27
2016-03-02T08:59:33.946Z,979.25
2016-03-02T09:00:33.948Z,979.29
2016-03-02T09:01:33.951Z,979.31
2016-03-02T09:02:33.954Z,979.31
2016-03-02T09:03:33.940Z,979.3
2016-03-02T09:04:33.943Z,979.29
2016-03-02T09:05:33.946Z,979.33
2016-03-02T09:06:46.683Z,979.29
2016-03-02T09:07:33.952Z,979.33
2016-03-02T09:08:33.938Z,979.27
2016-03-02T09:09:33.941Z,979.27
2016-03-02T09:10:33.943Z,979.3
2016-03-02T09:11:46.681Z,979.29
2016-03-02T09:12:33.949Z,979.25
2016-03-02T09:13:33.951Z,979.25
2016-03-02T09:14:33.954Z,979.24
2016-03-02T09:15:33.957Z,979.22
2016-03-02T09:16:33.944Z,979.21
2016-03-02T09:17:33.948Z,979.18
2016-03-02T09:18:33.950Z,979.19
2016-03-02T09:19:33.968Z,979.18
2016-03-02T09:20:33.956Z,979.21
2016-03-02T09:21:33.942Z,979.18
2016-03-02T09:22:33.961Z,979.12
2016-03-02T09:23:33.947Z,979.05
2016-03-02T09:24:33.966Z,979.02
2016-03-02T09:25:33.953Z,978.88
2016-03-02T09:26:33.956Z,978.82
2016-03-02T09:27:33.958Z,978.8
2016-03-02T09:28:33.961Z,978.77
2016-03-02T09:29:33.964Z,978.76
2016-03-02T09:30:46.702Z,978.79
2016-03-02T09:31:33.954Z,978.78
2016-03-02T09:32:33.957Z,978.81
2016-03-02T09:33:33.959Z,978.7
2016-03-02T09:34:33.962Z,978.65
2016-03-02T09:35:33.965Z,978.63
2016-03-02T09:36:33.967Z,978.58
2016-03-02T09:37:33.971Z,978.52
2016-03-02T09:38:33.957Z,978.52
2016-03-02T09:39:33.976Z,978.48
2016-03-02T09:40:33.963Z,978.4
2016-03-02T09:41:33.965Z,978.43
2016-03-02T09:42:33.968Z,978.48
2016-03-02T09:43:46.704Z,978.41
2016-03-02T09:44:33.957Z,978.46
2016-03-02T09:45:33.959Z,978.41
2016-03-02T09:46:33.962Z,978.45
2016-03-02T09:47:33.981Z,978.49
2016-03-02T09:48:33.967Z,978.55
2016-03-02T09:49:33.970Z,978.6
2016-03-02T09:50:33.973Z,978.59
2016-03-02T09:51:33.976Z,978.61
2016-03-02T09:52:33.979Z,978.65
2016-03-02T09:53:46.700Z,978.62
2016-03-02T09:54:33.969Z,978.66
2016-03-02T09:55:33.971Z,978.68
2016-03-02T09:56:33.974Z,978.61
2016-03-02T09:57:33.976Z,978.56
2016-03-02T09:58:33.979Z,978.43
2016-03-02T09:59:46.716Z,978.46
2016-03-02T10:00:33.985Z,978.4
2016-03-02T10:01:33.987Z,978.41
2016-03-02T10:02:33.991Z,978.37
2016-03-02T10:03:33.993Z,978.31
2016-03-02T10:04:33.996Z,978.26
2016-03-02T10:05:46.857Z,978.32
2016-03-02T10:06:34.001Z,978.27
2016-03-02T10:07:34.004Z,978.31
2016-03-02T10:08:33.990Z,978.32
2016-03-02T10:09:34.010Z,978.27
2016-03-02T10:10:33.996Z,978.16
2016-03-02T10:11:46.749Z,978.12
2016-03-02T10:12:34.001Z,978.08
2016-03-02T10:13:34.004Z,978.04
2016-03-02T10:14:34.006Z,978.05
2016-03-02T10:15:34.009Z,978
2016-03-02T10:16:46.762Z,977.92
2016-03-02T10:17:34.014Z,977.88
2016-03-02T10:18:34.017Z,977.78
2016-03-02T10:19:34.020Z,977.85
2016-03-02T10:20:46.757Z,977.73
2016-03-02T10:21:34.026Z,977.79
2016-03-02T10:22:34.028Z,977.8
2016-03-02T10:23:34.031Z,977.79
2016-03-02T10:24:34.050Z,977.83
2016-03-02T10:25:34.645Z,977.79
2016-03-02T10:26:34.039Z,977.67
2016-03-02T10:27:34.041Z,977.72
2016-03-02T10:28:34.044Z,977.72
2016-03-02T10:29:34.047Z,977.73
2016-03-02T10:30:34.050Z,977.71
2016-03-02T10:31:46.787Z,977.6
2016-03-02T10:32:46.789Z,977.66
2016-03-02T10:33:34.058Z,977.6
2016-03-02T10:34:34.060Z,977.63
2016-03-02T10:35:34.079Z,977.51
2016-03-02T10:36:34.065Z,977.49
2016-03-02T10:37:46.803Z,977.45
2016-03-02T10:38:34.071Z,977.44
2016-03-02T10:39:34.074Z,977.49
2016-03-02T10:40:34.077Z,977.52
2016-03-02T10:41:46.814Z,977.54
2016-03-02T10:42:34.082Z,977.5
2016-03-02T10:43:34.085Z,977.46
2016-03-02T10:44:34.087Z,977.5
2016-03-02T10:45:34.090Z,977.44
2016-03-02T10:46:34.109Z,977.32
2016-03-02T10:47:34.095Z,977.39
2016-03-02T10:48:34.098Z,977.4
2016-03-02T10:49:34.101Z,977.37
2016-03-02T10:50:46.837Z,977.38
2016-03-02T10:51:34.106Z,977.4
2016-03-02T10:52:34.109Z,977.38
2016-03-02T10:53:34.111Z,977.47
2016-03-02T10:54:34.114Z,977.41
2016-03-02T10:55:34.117Z,977.36
2016-03-02T10:56:34.120Z,977.33
2016-03-02T10:57:34.123Z,977.46
2016-03-02T10:58:34.125Z,977.25
2016-03-02T10:59:34.128Z,977.36
2016-03-02T11:00:34.114Z,977.37
2016-03-02T11:01:34.117Z,977.35
2016-03-02T11:02:34.120Z,977.36
2016-03-02T11:03:34.122Z,977.35
2016-03-02T11:04:34.126Z,977.25
2016-03-02T11:05:34.128Z,977.25
2016-03-02T11:06:34.130Z,977.22
2016-03-02T11:07:34.134Z,977.16
2016-03-02T11:08:34.136Z,977.18
2016-03-02T11:09:34.138Z,977.2
2016-03-02T11:10:34.141Z,977.1
2016-03-02T11:11:46.879Z,977.03
2016-03-02T11:12:34.147Z,977.02
2016-03-02T11:13:34.149Z,976.96
2016-03-02T11:14:34.152Z,976.95
2016-03-02T11:15:34.155Z,976.96
2016-03-02T11:16:46.892Z,976.93
2016-03-02T11:17:34.160Z,976.95
2016-03-02T11:18:34.179Z,976.94
2016-03-02T11:19:34.166Z,976.94
2016-03-02T11:20:34.168Z,976.94
2016-03-02T11:21:46.921Z,976.86
2016-03-02T11:22:34.173Z,976.83
2016-03-02T11:23:34.176Z,976.87
2016-03-02T11:24:34.179Z,976.81
2016-03-02T11:25:34.182Z,976.8
2016-03-02T11:26:46.920Z,976.78
2016-03-02T11:27:34.187Z,976.75
2016-03-02T11:28:34.190Z,976.73
2016-03-02T11:29:34.208Z,976.74
2016-03-02T11:30:46.930Z,976.72
2016-03-02T11:31:34.198Z,976.67
2016-03-02T11:32:34.201Z,976.7
2016-03-02T11:33:34.219Z,976.7
2016-03-02T11:34:34.222Z,976.65
2016-03-02T11:35:46.959Z,976.54
2016-03-02T11:36:34.227Z,976.58
2016-03-02T11:37:34.230Z,976.52
2016-03-02T11:38:34.233Z,976.54
2016-03-02T11:39:34.236Z,976.49
2016-03-02T11:40:34.254Z,976.54
2016-03-02T11:41:40.506Z,976.53
2016-03-02T11:42:34.259Z,976.48
2016-03-02T11:43:34.246Z,976.48
2016-03-02T11:44:34.265Z,976.45
2016-03-02T11:45:34.252Z,976.37
2016-03-02T11:46:34.254Z,976.38
2016-03-02T11:47:34.257Z,976.29
2016-03-02T11:48:34.259Z,976.25
2016-03-02T11:49:46.996Z,976.2
2016-03-02T11:50:46.999Z,976.2
2016-03-02T11:51:34.267Z,976.11
2016-03-02T11:52:34.271Z,976.09
2016-03-02T11:53:34.273Z,976.05
2016-03-02T11:54:47.026Z,975.96
2016-03-02T11:55:47.012Z,976.02
2016-03-02T11:56:34.281Z,976.03
2016-03-02T11:57:34.284Z,976.07
2016-03-02T11:58:34.286Z,976.09
2016-03-02T11:59:34.289Z,976.06
2016-03-02T12:00:47.026Z,975.98
2016-03-02T12:01:34.294Z,975.91
2016-03-02T12:02:34.298Z,975.83
2016-03-02T12:03:34.300Z,975.87
2016-03-02T12:04:34.318Z,975.95
2016-03-02T12:05:34.317Z,975.97
2016-03-02T12:06:34.320Z,975.92
2016-03-02T12:07:34.323Z,975.84
2016-03-02T12:08:34.326Z,975.82
2016-03-02T12:09:47.062Z,975.75
2016-03-02T12:10:34.331Z,975.72
2016-03-02T12:11:34.334Z,975.71
2016-03-02T12:12:34.336Z,975.65
2016-03-02T12:13:34.339Z,975.59
2016-03-02T12:14:34.341Z,975.64
2016-03-02T12:15:34.345Z,975.59
2016-03-02T12:16:34.347Z,975.55
2016-03-02T12:17:34.350Z,975.49
2016-03-02T12:18:34.352Z,975.49
2016-03-02T12:19:34.355Z,975.46
2016-03-02T12:20:34.358Z,975.41
2016-03-02T12:21:34.361Z,975.47
2016-03-02T12:22:34.363Z,975.49
2016-03-02T12:23:34.366Z,975.48
2016-03-02T12:24:34.369Z,975.48
2016-03-02T12:25:34.371Z,975.45
2016-03-02T12:26:34.374Z,975.47
2016-03-02T12:27:47.110Z,975.42
2016-03-02T12:28:34.376Z,975.41
2016-03-02T12:29:34.379Z,975.39
2016-03-02T12:30:34.382Z,975.43
2016-03-02T12:31:47.121Z,975.4